createdAt,value
2023-02-23T00:00:30.401Z,-2.75
2023-02-23T00:03:01.840Z,-2.78
2023-02-23T00:05:31.653Z,-2.82
2023-02-23T00:07:59.818Z,-2.86
2023-02-23T00:10:31.649Z,-2.88
2023-02-23T00:13:00.409Z,-2.90
2023-02-23T00:15:32.005Z,-2.92
2023-02-23T00:18:00.988Z,-2.95
2023-02-23T00:20:29.497Z,-2.98
2023-02-23T00:22:58.240Z,-3.01
2023-02-23T00:25:26.595Z,-3.04
2023-02-23T00:27:55.933Z,-3.07
2023-02-23T00:30:24.641Z,-3.10
2023-02-23T00:32:53.240Z,-3.11
2023-02-23T00:35:21.418Z,-3.13
2023-02-23T00:37:53.270Z,-3.16
2023-02-23T00:40:23.051Z,-3.19
2023-02-23T00:42:52.489Z,-3.22
2023-02-23T00:45:21.646Z,-3.24
2023-02-23T00:47:49.861Z,-3.27
2023-02-23T00:50:18.193Z,-3.31
2023-02-23T00:52:48.018Z,-3.34
2023-02-23T00:55:16.254Z,-3.37
2023-02-23T00:57:45.008Z,-3.41
2023-02-23T01:00:16.885Z,-3.44
2023-02-23T01:02:45.471Z,-3.48
2023-02-23T01:05:20.456Z,-3.53
2023-02-23T01:07:49.831Z,-3.59
2023-02-23T01:10:21.142Z,-3.63
2023-02-23T01:12:54.755Z,-3.68
2023-02-23T01:15:24.535Z,-3.73
2023-02-23T01:17:52.831Z,-3.77
2023-02-23T01:20:21.124Z,-3.81
2023-02-23T01:22:50.176Z,-3.84
2023-02-23T01:25:18.786Z,-3.88
2023-02-23T01:27:47.164Z,-3.90
2023-02-23T01:30:15.711Z,-3.93
2023-02-23T01:32:45.925Z,-3.95
2023-02-23T01:35:14.368Z,-3.97
2023-02-23T01:37:43.232Z,-4.00
2023-02-23T01:40:28.839Z,-4.04
2023-02-23T01:42:58.782Z,-4.09
2023-02-23T01:45:29.695Z,-4.12
2023-02-23T01:48:03.234Z,-4.14
2023-02-23T01:50:57.169Z,-4.17
2023-02-23T01:53:26.963Z,-4.21
2023-02-23T01:55:58.893Z,-4.24
2023-02-23T01:58:29.441Z,-4.26
2023-02-23T02:01:01.679Z,-4.29
2023-02-23T02:03:35.404Z,-4.32
2023-02-23T02:06:04.345Z,-4.35
2023-02-23T02:08:33.165Z,-4.39
2023-02-23T02:11:25.715Z,-4.40
2023-02-23T02:13:55.111Z,-4.41
2023-02-23T02:16:49.814Z,-4.43
2023-02-23T02:19:53.450Z,-4.46
2023-02-23T02:22:27.815Z,-4.50
2023-02-23T02:25:16.851Z,-4.52
2023-02-23T02:28:04.285Z,-4.56
2023-02-23T02:31:15.747Z,-4.59
2023-02-23T02:34:16.027Z,-4.61
2023-02-23T02:36:58.431Z,-4.62
2023-02-23T02:40:16.187Z,-4.65
2023-02-23T02:43:11.590Z,-4.69
2023-02-23T02:45:45.997Z,-4.74
2023-02-23T02:48:31.318Z,-4.78
2023-02-23T02:51:22.169Z,-4.82
2023-02-23T02:54:10.643Z,-4.85
2023-02-23T02:56:40.755Z,-4.88
2023-02-23T02:59:30.709Z,-4.90
2023-02-23T03:02:17.754Z,-4.94
2023-02-23T03:05:04.962Z,-4.97
2023-02-23T03:07:59.786Z,-5.00
2023-02-23T03:10:55.947Z,-5.04
2023-02-23T03:14:25.172Z,-5.07
2023-02-23T03:17:18.492Z,-5.10
2023-02-23T03:20:30.107Z,-5.13
2023-02-23T03:23:25.377Z,-5.15
2023-02-23T03:26:33.733Z,-5.17
2023-02-23T03:29:27.973Z,-5.23
2023-02-23T03:32:44.356Z,-5.26
2023-02-23T03:35:51.338Z,-5.28
2023-02-23T03:39:05.317Z,-5.32
2023-02-23T03:41:53.042Z,-5.35
2023-02-23T03:44:53.239Z,-5.37
2023-02-23T03:47:42.666Z,-5.38
2023-02-23T03:50:36.398Z,-5.39
2023-02-23T03:53:23.618Z,-5.43
2023-02-23T03:56:12.117Z,-5.46
2023-02-23T03:59:04.168Z,-5.47
2023-02-23T04:01:51.367Z,-5.49
2023-02-23T04:04:38.284Z,-5.50
2023-02-23T04:07:25.632Z,-5.52
2023-02-23T04:10:13.374Z,-5.56
2023-02-23T04:13:12.922Z,-5.60
2023-02-23T04:16:00.427Z,-5.62
2023-02-23T04:18:34.602Z,-5.62
2023-02-23T04:21:03.329Z,-5.62
2023-02-23T04:23:32.445Z,-5.62
2023-02-23T04:26:00.728Z,-5.61
2023-02-23T04:28:29.343Z,-5.61
2023-02-23T04:30:57.580Z,-5.59
2023-02-23T04:33:27.311Z,-5.57
2023-02-23T04:35:55.638Z,-5.55
2023-02-23T04:38:23.883Z,-5.52
2023-02-23T04:40:52.287Z,-5.51
2023-02-23T04:43:20.873Z,-5.49
2023-02-23T04:45:49.614Z,-5.47
2023-02-23T04:48:17.985Z,-5.46
2023-02-23T04:50:46.747Z,-5.44
2023-02-23T04:53:14.955Z,-5.40
2023-02-23T04:55:44.809Z,-5.39
2023-02-23T04:58:14.783Z,-5.39
2023-02-23T05:00:43.327Z,-5.39
2023-02-23T05:03:12.323Z,-5.40
2023-02-23T05:05:40.621Z,-5.39
2023-02-23T05:08:09.890Z,-5.39
2023-02-23T05:10:40.228Z,-5.41
2023-02-23T05:13:08.918Z,-5.40
2023-02-23T05:15:38.746Z,-5.42
2023-02-23T05:18:08.258Z,-5.41
2023-02-23T05:20:36.708Z,-5.39
2023-02-23T05:23:06.531Z,-5.38
2023-02-23T05:25:35.837Z,-5.36
2023-02-23T05:28:05.400Z,-5.36
2023-02-23T05:30:34.901Z,-5.34
2023-02-23T05:33:03.443Z,-5.31
2023-02-23T05:35:31.956Z,-5.28
2023-02-23T05:38:00.762Z,-5.25
2023-02-23T05:40:29.075Z,-5.21
2023-02-23T05:43:00.990Z,-5.17
2023-02-23T05:45:30.013Z,-5.13
2023-02-23T05:47:59.889Z,-5.07
2023-02-23T05:50:28.276Z,-5.00
2023-02-23T05:52:56.631Z,-4.89
2023-02-23T05:55:27.366Z,-4.80
2023-02-23T05:57:56.083Z,-4.66
2023-02-23T06:00:24.637Z,-4.51
2023-02-23T06:02:55.791Z,-4.36
2023-02-23T06:05:24.877Z,-4.22
2023-02-23T06:07:54.000Z,-4.10
2023-02-23T06:10:23.733Z,-3.96
2023-02-23T06:12:52.300Z,-3.78
2023-02-23T06:15:23.627Z,-3.62
2023-02-23T06:17:53.718Z,-3.43
2023-02-23T06:20:22.870Z,-3.25
2023-02-23T06:22:53.076Z,-3.10
2023-02-23T06:25:21.981Z,-2.96
2023-02-23T06:27:53.775Z,-2.80
2023-02-23T06:33:16.701Z,-2.53
2023-02-23T06:35:46.627Z,-2.38
2023-02-23T06:38:14.841Z,-2.21
2023-02-23T06:40:44.301Z,-2.06
2023-02-23T06:43:12.816Z,-1.94
2023-02-23T06:45:42.201Z,-1.82
2023-02-23T06:48:10.773Z,-1.69
2023-02-23T06:50:40.911Z,-1.53
2023-02-23T06:53:09.619Z,-1.40
2023-02-23T06:55:38.267Z,-1.34
2023-02-23T06:58:08.079Z,-1.28
2023-02-23T07:00:37.558Z,-1.20
2023-02-23T07:03:07.069Z,-1.10
2023-02-23T07:05:35.399Z,-1.03
2023-02-23T07:08:04.046Z,-0.93
2023-02-23T07:10:32.693Z,-0.82
2023-02-23T07:13:01.551Z,-0.72
2023-02-23T07:15:30.019Z,-0.65
2023-02-23T07:17:58.271Z,-0.55
2023-02-23T07:20:26.574Z,-0.41
2023-02-23T07:22:55.010Z,-0.26
2023-02-23T07:25:23.485Z,-0.16
2023-02-23T07:27:54.258Z,-0.13
2023-02-23T07:30:25.414Z,-0.10
2023-02-23T07:32:53.932Z,-0.02
2023-02-23T07:35:22.463Z,0.06
2023-02-23T07:37:51.026Z,0.12
2023-02-23T07:40:19.526Z,0.18
2023-02-23T07:42:47.806Z,0.28
2023-02-23T07:45:16.948Z,0.33
2023-02-23T07:47:45.246Z,0.36
2023-02-23T07:50:14.160Z,0.47
2023-02-23T07:52:43.127Z,0.62
2023-02-23T07:55:11.898Z,0.70
2023-02-23T07:57:40.246Z,0.79
2023-02-23T08:00:09.716Z,0.86
2023-02-23T08:02:42.136Z,0.96
2023-02-23T08:05:11.897Z,1.08
2023-02-23T08:07:42.179Z,1.15
2023-02-23T08:10:11.652Z,1.15
2023-02-23T08:12:41.470Z,1.19
2023-02-23T08:15:10.223Z,1.27
2023-02-23T08:17:41.874Z,1.31
2023-02-23T08:20:11.501Z,1.40
2023-02-23T08:22:49.232Z,1.44
2023-02-23T08:25:18.773Z,1.49
2023-02-23T08:27:52.219Z,1.53
2023-02-23T08:30:24.552Z,1.63
2023-02-23T08:32:53.104Z,1.77
2023-02-23T08:35:21.834Z,1.87
2023-02-23T08:37:50.087Z,1.98
2023-02-23T08:40:20.940Z,2.13
2023-02-23T08:42:52.985Z,2.27
2023-02-23T08:45:21.300Z,2.40
2023-02-23T08:47:49.859Z,2.45
2023-02-23T08:50:18.554Z,2.46
2023-02-23T08:52:46.887Z,2.50
2023-02-23T08:55:22.746Z,2.61
2023-02-23T08:57:50.925Z,2.78
2023-02-23T09:00:19.887Z,2.94
2023-02-23T09:02:49.858Z,3.06
2023-02-23T09:05:18.344Z,3.11
2023-02-23T09:07:49.275Z,3.10
2023-02-23T09:10:20.152Z,3.10
2023-02-23T09:12:48.447Z,3.16
2023-02-23T09:15:17.250Z,3.18
2023-02-23T09:17:47.709Z,3.23
2023-02-23T09:20:17.247Z,3.34
2023-02-23T09:22:48.759Z,3.50
2023-02-23T09:25:19.309Z,3.65
2023-02-23T09:27:49.275Z,3.74
2023-02-23T09:30:20.850Z,3.86
2023-02-23T09:32:50.398Z,3.93
2023-02-23T09:35:19.703Z,3.93
2023-02-23T09:37:49.745Z,3.99
2023-02-23T09:40:26.337Z,4.15
2023-02-23T09:43:03.605Z,4.33
2023-02-23T09:45:31.857Z,4.48
2023-02-23T09:48:10.602Z,4.53
2023-02-23T09:50:40.550Z,4.62
2023-02-23T09:53:21.169Z,4.72
2023-02-23T09:55:49.757Z,4.68
2023-02-23T09:58:31.829Z,4.69
2023-02-23T10:01:58.560Z,4.72
2023-02-23T10:04:39.862Z,4.84
2023-02-23T10:07:19.302Z,4.97
2023-02-23T10:10:25.011Z,5.07
2023-02-23T10:13:14.137Z,5.05
2023-02-23T10:15:52.848Z,4.96
2023-02-23T10:18:45.261Z,4.92
2023-02-23T10:21:18.995Z,5.00
2023-02-23T10:23:54.928Z,5.12
2023-02-23T10:26:25.547Z,5.23
2023-02-23T10:28:55.158Z,5.30
2023-02-23T10:31:42.542Z,5.38
2023-02-23T10:34:17.124Z,5.46
2023-02-23T10:37:01.948Z,5.52
2023-02-23T10:39:30.600Z,5.64
2023-02-23T10:42:04.117Z,5.77
2023-02-23T10:44:32.948Z,5.86
2023-02-23T10:47:11.853Z,5.83
2023-02-23T10:49:55.591Z,5.84
2023-02-23T10:52:32.505Z,5.84
2023-02-23T10:55:03.558Z,5.83
2023-02-23T10:57:39.976Z,5.84
2023-02-23T11:00:20.478Z,5.85
2023-02-23T11:02:48.810Z,5.94
2023-02-23T11:05:33.628Z,6.10
2023-02-23T11:08:25.241Z,6.31
2023-02-23T11:10:57.508Z,6.52
2023-02-23T11:13:40.696Z,6.63
2023-02-23T11:16:13.339Z,6.59
2023-02-23T11:18:43.410Z,6.52
2023-02-23T11:21:12.812Z,6.49
2023-02-23T11:23:41.124Z,6.50
2023-02-23T11:26:38.132Z,6.57
2023-02-23T11:29:47.576Z,6.65
2023-02-23T11:32:19.338Z,6.83
2023-02-23T11:34:49.507Z,6.96
2023-02-23T11:37:23.419Z,7.08
2023-02-23T11:39:55.529Z,7.13
2023-02-23T11:42:28.286Z,7.21
2023-02-23T11:45:03.404Z,7.33
2023-02-23T11:47:32.914Z,7.47
2023-02-23T11:50:01.587Z,7.56
2023-02-23T11:52:30.130Z,7.66
2023-02-23T11:55:02.068Z,7.77
2023-02-23T11:57:40.106Z,7.87
2023-02-23T12:00:13.251Z,7.96
2023-02-23T12:03:00.227Z,8.06
2023-02-23T12:05:32.693Z,8.06
2023-02-23T12:08:11.624Z,8.04
2023-02-23T12:10:44.467Z,7.97
2023-02-23T12:13:21.773Z,7.90
2023-02-23T12:16:05.715Z,7.94
2023-02-23T12:18:46.805Z,8.02
2023-02-23T12:21:36.897Z,8.12
2023-02-23T12:24:08.491Z,8.15
2023-02-23T12:26:49.689Z,8.13
2023-02-23T12:29:31.934Z,8.17
2023-02-23T12:32:03.200Z,8.15
2023-02-23T12:34:43.035Z,8.10
2023-02-23T12:37:28.242Z,8.09
2023-02-23T12:39:59.151Z,8.13
2023-02-23T12:42:38.953Z,8.22
2023-02-23T12:45:16.414Z,8.34
2023-02-23T12:47:56.460Z,8.46
2023-02-23T12:50:34.765Z,8.52
2023-02-23T12:53:07.156Z,8.58
2023-02-23T12:55:42.140Z,8.63
2023-02-23T12:58:28.860Z,8.69
2023-02-23T13:01:12.350Z,8.77
2023-02-23T13:04:17.584Z,8.82
2023-02-23T13:07:18.086Z,8.87
2023-02-23T13:10:01.186Z,8.83
2023-02-23T13:12:44.533Z,8.78
2023-02-23T13:15:48.790Z,8.74
2023-02-23T13:18:24.884Z,8.67
2023-02-23T13:21:03.914Z,8.63
2023-02-23T13:23:47.466Z,8.63
2023-02-23T13:26:34.804Z,8.67
2023-02-23T13:29:04.101Z,8.70
2023-02-23T13:31:37.201Z,8.74
2023-02-23T13:34:10.468Z,8.75
2023-02-23T13:36:40.841Z,8.77
2023-02-23T13:39:47.904Z,8.80
2023-02-23T13:42:16.569Z,8.82
2023-02-23T13:44:53.731Z,8.86
2023-02-23T13:47:46.678Z,8.86
2023-02-23T13:50:22.732Z,8.80
2023-02-23T13:52:55.836Z,8.69
2023-02-23T13:55:29.437Z,8.41
2023-02-23T13:58:06.872Z,8.17
2023-02-23T14:00:36.896Z,8.20
2023-02-23T14:03:05.903Z,8.29
2023-02-23T14:05:44.183Z,8.34
2023-02-23T14:08:26.642Z,8.38
2023-02-23T14:10:57.477Z,8.44
2023-02-23T14:13:28.971Z,8.50
2023-02-23T14:16:17.994Z,8.53
2023-02-23T14:19:12.594Z,8.44
2023-02-23T14:21:52.645Z,8.20
2023-02-23T14:24:25.181Z,7.96
2023-02-23T14:27:12.426Z,7.75
2023-02-23T14:29:41.639Z,7.54
2023-02-23T14:32:13.066Z,7.30
2023-02-23T14:34:43.432Z,7.06
2023-02-23T14:37:22.300Z,6.84
2023-02-23T14:39:51.362Z,6.60
2023-02-23T14:42:25.150Z,6.40
2023-02-23T14:44:55.300Z,6.22
2023-02-23T14:47:26.038Z,6.05
2023-02-23T14:49:58.751Z,5.90
2023-02-23T14:52:27.604Z,5.75
2023-02-23T14:55:27.987Z,5.54
2023-02-23T14:57:58.291Z,5.28
2023-02-23T15:00:33.202Z,5.00
2023-02-23T15:03:12.750Z,4.75
2023-02-23T15:05:55.858Z,4.60
2023-02-23T15:08:29.001Z,4.51
2023-02-23T15:11:03.651Z,4.43
2023-02-23T15:16:08.162Z,4.25
2023-02-23T15:18:38.527Z,4.16
2023-02-23T15:21:13.873Z,4.06
2023-02-23T15:23:44.696Z,3.96
2023-02-23T15:26:32.102Z,3.87
2023-02-23T15:29:09.991Z,3.77
2023-02-23T15:31:50.266Z,3.67
2023-02-23T15:34:21.282Z,3.58
2023-02-23T15:37:00.060Z,3.44
2023-02-23T15:39:57.057Z,3.26
2023-02-23T15:42:35.821Z,3.04
2023-02-23T15:45:11.801Z,2.90
2023-02-23T15:47:40.077Z,2.79
2023-02-23T15:50:21.982Z,2.68
2023-02-23T15:53:00.001Z,2.49
2023-02-23T15:55:31.908Z,2.28
2023-02-23T15:58:00.417Z,2.08
2023-02-23T16:00:38.447Z,1.96
2023-02-23T16:03:09.000Z,1.83
2023-02-23T16:05:46.515Z,1.70
2023-02-23T16:08:23.870Z,1.57
2023-02-23T16:11:23.154Z,1.44
2023-02-23T16:13:51.736Z,1.31
2023-02-23T16:16:25.634Z,1.22
2023-02-23T16:19:01.315Z,1.15
2023-02-23T16:21:33.146Z,1.08
2023-02-23T16:24:22.346Z,1.01
2023-02-23T16:26:57.291Z,0.90
2023-02-23T16:29:42.068Z,0.85
2023-02-23T16:32:15.992Z,0.74
2023-02-23T16:34:51.404Z,0.70
2023-02-23T16:37:23.314Z,0.72
2023-02-23T16:39:52.021Z,0.74
2023-02-23T16:42:27.721Z,0.73
2023-02-23T16:44:57.623Z,0.68
2023-02-23T16:47:40.675Z,0.65
2023-02-23T16:50:20.335Z,0.59
2023-02-23T16:52:53.821Z,0.51
2023-02-23T16:55:26.153Z,0.46
2023-02-23T16:58:00.576Z,0.45
2023-02-23T17:00:31.805Z,0.46
2023-02-23T17:03:01.527Z,0.47
2023-02-23T17:05:30.461Z,0.46
2023-02-23T17:07:59.745Z,0.45
2023-02-23T17:10:30.987Z,0.44
2023-02-23T17:13:07.102Z,0.42
2023-02-23T17:15:38.158Z,0.40
2023-02-23T17:18:06.499Z,0.36
2023-02-23T17:20:34.748Z,0.32
2023-02-23T17:23:03.282Z,0.30
2023-02-23T17:25:31.638Z,0.27
2023-02-23T17:28:00.162Z,0.24
2023-02-23T17:30:28.546Z,0.23
2023-02-23T17:32:58.064Z,0.21
2023-02-23T17:35:28.148Z,0.19
2023-02-23T17:37:57.990Z,0.17
2023-02-23T17:40:29.614Z,0.15
2023-02-23T17:42:59.265Z,0.12
2023-02-23T17:45:27.959Z,0.09
2023-02-23T17:47:56.685Z,0.07
2023-02-23T17:50:27.207Z,0.03
2023-02-23T17:52:56.861Z,-0.02
2023-02-23T17:55:26.931Z,-0.08
2023-02-23T17:57:55.111Z,-0.11
2023-02-23T18:00:25.204Z,-0.13
2023-02-23T18:02:55.612Z,-0.16
2023-02-23T18:05:24.132Z,-0.17
2023-02-23T18:07:52.616Z,-0.19
2023-02-23T18:10:25.597Z,-0.22
2023-02-23T18:12:55.439Z,-0.23
2023-02-23T18:15:24.550Z,-0.26
2023-02-23T18:17:54.741Z,-0.30
2023-02-23T18:20:24.855Z,-0.34
2023-02-23T18:22:53.187Z,-0.36
2023-02-23T18:25:28.733Z,-0.40
2023-02-23T18:27:58.637Z,-0.45
2023-02-23T18:30:29.881Z,-0.48
2023-02-23T18:33:01.667Z,-0.51
2023-02-23T18:35:37.992Z,-0.53
2023-02-23T18:38:09.141Z,-0.56
2023-02-23T18:40:38.961Z,-0.57
2023-02-23T18:43:08.220Z,-0.61
2023-02-23T18:45:36.988Z,-0.66
2023-02-23T18:48:10.204Z,-0.74
2023-02-23T18:50:38.789Z,-0.81
2023-02-23T18:53:09.212Z,-0.84
2023-02-23T18:55:38.713Z,-0.86
2023-02-23T18:58:07.938Z,-0.87
2023-02-23T19:00:42.784Z,-0.88
2023-02-23T19:03:18.795Z,-0.88
2023-02-23T19:05:53.153Z,-0.89
2023-02-23T19:08:21.839Z,-0.89
2023-02-23T19:10:52.249Z,-0.89
2023-02-23T19:13:22.404Z,-0.93
2023-02-23T19:15:53.603Z,-0.98
2023-02-23T19:18:22.411Z,-1.03
2023-02-23T19:20:55.497Z,-1.08
2023-02-23T19:23:24.138Z,-1.10
2023-02-23T19:25:52.793Z,-1.12
2023-02-23T19:28:22.749Z,-1.14
2023-02-23T19:31:00.394Z,-1.19
2023-02-23T19:33:32.704Z,-1.22
2023-02-23T19:36:04.895Z,-1.23
2023-02-23T19:38:33.930Z,-1.26
2023-02-23T19:41:06.142Z,-1.29
2023-02-23T19:43:34.551Z,-1.33
2023-02-23T19:46:10.736Z,-1.40
2023-02-23T19:48:39.212Z,-1.48
2023-02-23T19:51:10.965Z,-1.53
2023-02-23T19:53:39.660Z,-1.56
2023-02-23T19:56:11.417Z,-1.55
2023-02-23T19:58:46.792Z,-1.54
2023-02-23T20:01:18.383Z,-1.55
2023-02-23T20:03:49.688Z,-1.56
2023-02-23T20:06:17.948Z,-1.56
2023-02-23T20:08:48.389Z,-1.55
2023-02-23T20:11:18.722Z,-1.55
2023-02-23T20:13:51.053Z,-1.56
2023-02-23T20:16:19.842Z,-1.58
2023-02-23T20:18:51.973Z,-1.60
2023-02-23T20:21:23.562Z,-1.63
2023-02-23T20:23:52.401Z,-1.65
2023-02-23T20:26:23.216Z,-1.68
2023-02-23T20:28:51.745Z,-1.72
2023-02-23T20:31:25.845Z,-1.72
2023-02-23T20:33:56.630Z,-1.72
2023-02-23T20:36:25.151Z,-1.74
2023-02-23T20:38:53.636Z,-1.74
2023-02-23T20:41:22.914Z,-1.74
2023-02-23T20:43:54.376Z,-1.75
2023-02-23T20:46:24.651Z,-1.76
2023-02-23T20:48:52.957Z,-1.79
2023-02-23T20:51:21.658Z,-1.83
2023-02-23T20:53:50.178Z,-1.87
2023-02-23T20:56:19.201Z,-1.92
2023-02-23T20:58:48.765Z,-1.95
2023-02-23T21:01:20.798Z,-1.97
2023-02-23T21:03:51.686Z,-1.96
2023-02-23T21:06:21.875Z,-1.93
2023-02-23T21:08:50.667Z,-1.91
2023-02-23T21:11:22.289Z,-1.90
2023-02-23T21:13:51.727Z,-1.89
2023-02-23T21:16:20.774Z,-1.90
2023-02-23T21:19:04.073Z,-1.92
2023-02-23T21:21:40.134Z,-1.92
2023-02-23T21:24:08.830Z,-1.92
2023-02-23T21:26:37.243Z,-1.94
2023-02-23T21:29:08.238Z,-1.97
2023-02-23T21:31:41.743Z,-1.98
2023-02-23T21:34:11.119Z,-1.98
2023-02-23T21:36:39.267Z,-2.02
2023-02-23T21:39:08.737Z,-2.04
2023-02-23T21:41:38.332Z,-2.04
2023-02-23T21:44:07.920Z,-2.03
2023-02-23T21:46:40.709Z,-2.02
2023-02-23T21:49:10.018Z,-2.02
2023-02-23T21:51:38.708Z,-2.01
2023-02-23T21:54:07.742Z,-2.00
2023-02-23T21:56:36.860Z,-2.00
2023-02-23T21:59:06.200Z,-1.99
2023-02-23T22:01:36.040Z,-1.99
2023-02-23T22:04:05.884Z,-1.99
2023-02-23T22:06:37.191Z,-1.99
2023-02-23T22:09:12.760Z,-1.98
2023-02-23T22:11:45.628Z,-1.99
2023-02-23T22:14:16.725Z,-2.00
2023-02-23T22:16:46.621Z,-2.02
2023-02-23T22:19:16.616Z,-2.02
2023-02-23T22:21:47.957Z,-2.02
2023-02-23T22:24:16.999Z,-2.01
2023-02-23T22:26:50.762Z,-2.00
2023-02-23T22:29:20.665Z,-2.00
2023-02-23T22:31:49.224Z,-2.01
2023-02-23T22:34:18.535Z,-2.01
2023-02-23T22:36:50.283Z,-2.02
2023-02-23T22:39:20.107Z,-2.01
2023-02-23T22:41:48.540Z,-2.00
2023-02-23T22:44:19.488Z,-1.99
2023-02-23T22:46:52.326Z,-1.98
2023-02-23T22:49:20.915Z,-2.00
2023-02-23T22:51:50.638Z,-2.02
2023-02-23T22:54:23.852Z,-2.03
2023-02-23T22:56:52.022Z,-2.02
2023-02-23T22:59:20.521Z,-2.02
2023-02-23T23:01:51.285Z,-2.03
2023-02-23T23:04:22.455Z,-2.04
2023-02-23T23:06:50.825Z,-2.04
2023-02-23T23:09:21.234Z,-2.05
2023-02-23T23:11:51.011Z,-2.06
2023-02-23T23:14:25.213Z,-2.07
2023-02-23T23:16:55.302Z,-2.07
2023-02-23T23:19:24.459Z,-2.06
2023-02-23T23:21:55.450Z,-2.05
2023-02-23T23:24:27.257Z,-2.06
2023-02-23T23:26:56.230Z,-2.07
2023-02-23T23:29:25.973Z,-2.07
2023-02-23T23:31:57.318Z,-2.07
2023-02-23T23:34:25.778Z,-2.05
2023-02-23T23:36:58.225Z,-2.05
2023-02-23T23:39:27.302Z,-2.06
2023-02-23T23:41:55.529Z,-2.06
2023-02-23T23:44:25.063Z,-2.07
2023-02-23T23:46:53.464Z,-2.07
2023-02-23T23:49:26.696Z,-2.07
2023-02-23T23:51:57.304Z,-2.06
2023-02-23T23:54:28.255Z,-2.08
2023-02-23T23:57:01.573Z,-2.10
2023-02-23T23:59:30.176Z,-2.12
